createdAt,value
2023-03-23T15:58:54.606Z,15.79
2023-03-23T16:01:30.077Z,15.67
2023-03-23T16:04:12.480Z,15.55
2023-03-23T16:06:45.533Z,15.44
2023-03-23T16:09:20.125Z,15.34
2023-03-23T16:11:54.371Z,15.23
2023-03-23T16:14:23.569Z,15.16
2023-03-23T16:16:55.795Z,15.09
2023-03-23T16:19:25.964Z,14.99
2023-03-23T16:21:57.148Z,14.89
2023-03-23T16:24:28.878Z,14.81
2023-03-23T16:27:03.222Z,14.73
2023-03-23T16:29:54.291Z,14.64
2023-03-23T16:32:26.174Z,14.57
2023-03-23T16:34:58.173Z,14.51
2023-03-23T16:37:33.489Z,14.44
2023-03-23T16:40:06.553Z,14.37
2023-03-23T16:42:36.333Z,14.31
2023-03-23T16:45:06.460Z,14.26
2023-03-23T16:47:42.600Z,14.20
2023-03-23T16:50:16.040Z,14.16
2023-03-23T16:52:50.360Z,14.12
2023-03-23T16:55:18.634Z,14.08
2023-03-23T16:57:54.187Z,14.04
2023-03-23T17:00:29.114Z,13.99
2023-03-23T17:02:57.875Z,13.96
2023-03-23T17:05:28.239Z,13.93
2023-03-23T17:07:56.715Z,13.91
2023-03-23T17:10:30.092Z,13.88
2023-03-23T17:13:00.432Z,13.83
2023-03-23T17:15:28.913Z,13.80
2023-03-23T17:18:04.290Z,13.77
2023-03-23T17:20:34.790Z,13.73
2023-03-23T17:23:03.163Z,13.70
2023-03-23T17:25:34.819Z,13.68
2023-03-23T17:28:10.430Z,13.65
2023-03-23T17:30:44.148Z,13.61
2023-03-23T17:33:19.006Z,13.59
2023-03-23T17:35:47.686Z,13.56
2023-03-23T17:38:19.060Z,13.54
2023-03-23T17:40:47.420Z,13.52
2023-03-23T17:43:22.563Z,13.53
2023-03-23T17:45:52.288Z,13.54
2023-03-23T17:48:22.289Z,13.52
2023-03-23T17:50:54.964Z,13.49
2023-03-23T17:53:28.258Z,13.48
2023-03-23T17:56:00.740Z,13.47
2023-03-23T17:58:33.208Z,13.46
2023-03-23T18:01:04.839Z,13.44
2023-03-23T18:03:40.822Z,13.41
2023-03-23T18:06:11.966Z,13.38
2023-03-23T18:08:40.349Z,13.33
2023-03-23T18:11:10.566Z,13.31
2023-03-23T18:13:46.115Z,13.28
2023-03-23T18:16:21.184Z,13.25
2023-03-23T18:18:51.884Z,13.21
2023-03-23T18:21:21.918Z,13.16
2023-03-23T18:24:00.165Z,13.10
2023-03-23T18:26:30.233Z,13.04
2023-03-23T18:28:58.506Z,12.98
2023-03-23T18:31:29.104Z,12.92
2023-03-23T18:33:59.167Z,12.88
2023-03-23T18:36:27.750Z,12.84
2023-03-23T18:39:01.146Z,12.83
2023-03-23T18:41:33.308Z,12.81
2023-03-23T18:44:02.813Z,12.77
2023-03-23T18:46:32.895Z,12.73
2023-03-23T18:49:04.773Z,12.68
2023-03-23T18:51:38.292Z,12.64
2023-03-23T18:54:10.568Z,12.60
2023-03-23T18:56:39.801Z,12.59
2023-03-23T18:59:12.442Z,12.58
2023-03-23T19:01:44.653Z,12.56
2023-03-23T19:04:13.810Z,12.54
2023-03-23T19:06:42.299Z,12.51
2023-03-23T19:09:12.112Z,12.49
2023-03-23T19:11:50.741Z,12.51
2023-03-23T19:14:22.586Z,12.55
2023-03-23T19:16:54.144Z,12.57
2023-03-23T19:19:25.032Z,12.58
2023-03-23T19:21:55.249Z,12.58
2023-03-23T19:24:23.480Z,12.60
2023-03-23T19:27:00.190Z,12.62
2023-03-23T19:29:29.494Z,12.64
2023-03-23T19:32:03.169Z,12.65
2023-03-23T19:34:38.097Z,12.66
2023-03-23T19:37:11.454Z,12.68
2023-03-23T19:39:48.028Z,12.67
2023-03-23T19:42:18.560Z,12.67
2023-03-23T19:44:47.487Z,12.69
2023-03-23T19:47:16.490Z,12.70
2023-03-23T19:49:51.558Z,12.71
2023-03-23T19:52:21.220Z,12.72
2023-03-23T19:54:53.253Z,12.71
2023-03-23T19:57:22.589Z,12.70
2023-03-23T19:59:55.128Z,12.70
2023-03-23T20:02:29.201Z,12.69
2023-03-23T20:04:59.579Z,12.68
2023-03-23T20:08:46.111Z,12.73
2023-03-23T20:11:26.688Z,12.73
2023-03-23T20:14:00.607Z,12.70
2023-03-23T20:16:33.269Z,12.65
2023-03-23T20:19:01.672Z,12.63
2023-03-23T20:21:33.765Z,12.62
2023-03-23T20:24:02.189Z,12.61
2023-03-23T20:26:37.597Z,12.61
2023-03-23T20:29:10.590Z,12.61
2023-03-23T20:31:43.511Z,12.62
2023-03-23T20:34:28.714Z,12.60
2023-03-23T20:37:04.432Z,12.57
2023-03-23T20:39:46.740Z,12.51
2023-03-23T20:42:15.837Z,12.45
2023-03-23T20:44:49.949Z,12.45
2023-03-23T20:47:20.991Z,12.46
2023-03-23T20:49:57.670Z,12.44
2023-03-23T20:52:28.714Z,12.40
2023-03-23T20:55:02.829Z,12.36
2023-03-23T20:57:32.632Z,12.31
2023-03-23T21:00:02.771Z,12.27
2023-03-23T21:02:36.355Z,12.24
2023-03-23T21:05:18.458Z,12.19
2023-03-23T21:07:55.240Z,12.16
2023-03-23T21:10:27.920Z,12.11
2023-03-23T21:13:01.040Z,12.08
2023-03-23T21:15:34.090Z,12.05
2023-03-23T21:18:04.915Z,12.00
2023-03-23T21:20:38.044Z,11.96
2023-03-23T21:23:07.936Z,11.95
2023-03-23T21:25:42.352Z,11.99
2023-03-23T21:28:17.282Z,12.00
2023-03-23T21:30:46.453Z,11.98
2023-03-23T21:33:16.190Z,11.96
2023-03-23T21:35:47.259Z,11.94
2023-03-23T21:38:27.283Z,11.91
2023-03-23T21:41:02.887Z,11.89
2023-03-23T21:43:33.462Z,11.86
2023-03-23T21:46:08.357Z,11.84
2023-03-23T21:48:42.514Z,11.81
2023-03-23T21:51:16.211Z,11.80
2023-03-23T21:53:55.721Z,11.78
2023-03-23T21:56:25.440Z,11.75
2023-03-23T21:59:02.770Z,11.70
2023-03-23T22:01:37.147Z,11.64
2023-03-23T22:04:13.857Z,11.59
2023-03-23T22:06:46.831Z,11.52
2023-03-23T22:09:20.842Z,11.46
2023-03-23T22:11:49.028Z,11.40
2023-03-23T22:14:26.618Z,11.36
2023-03-23T22:16:55.093Z,11.34
2023-03-23T22:19:29.106Z,11.36
2023-03-23T22:22:06.187Z,11.38
2023-03-23T22:24:38.667Z,11.41
2023-03-23T22:27:07.452Z,11.44
2023-03-23T22:29:37.998Z,11.44
2023-03-23T22:32:11.392Z,11.43
2023-03-23T22:34:40.890Z,11.45
2023-03-23T22:37:11.012Z,11.45
2023-03-23T22:39:46.677Z,11.45
2023-03-23T22:42:19.034Z,11.46
2023-03-23T22:44:51.719Z,11.45
2023-03-23T22:47:21.632Z,11.46
2023-03-23T22:49:51.653Z,11.48
2023-03-23T22:52:20.336Z,11.50
2023-03-23T22:54:54.045Z,11.52
2023-03-23T22:57:26.925Z,11.52
2023-03-23T23:00:00.433Z,11.57
2023-03-23T23:02:29.150Z,11.60
2023-03-23T23:05:04.969Z,11.60
2023-03-23T23:07:33.241Z,11.61
2023-03-23T23:10:08.264Z,11.62
2023-03-23T23:12:36.761Z,11.63
2023-03-23T23:15:08.992Z,11.64
2023-03-23T23:17:42.329Z,11.63
2023-03-23T23:20:14.696Z,11.62
2023-03-23T23:22:45.190Z,11.63
2023-03-23T23:25:21.592Z,11.64
2023-03-23T23:27:53.260Z,11.68
2023-03-23T23:30:28.394Z,11.71
2023-03-23T23:33:03.149Z,11.72
2023-03-23T23:35:36.917Z,11.72
2023-03-23T23:38:06.017Z,11.73
2023-03-23T23:40:36.749Z,11.71
2023-03-23T23:43:09.133Z,11.67
2023-03-23T23:45:41.932Z,11.64
2023-03-23T23:48:19.195Z,11.61
2023-03-23T23:50:52.486Z,11.63
2023-03-23T23:53:23.388Z,11.62
2023-03-23T23:55:56.616Z,11.61
2023-03-23T23:58:32.471Z,11.60
